Time;durP1;ratioP1;P1;durP2;ratioP2;P2;SDS_P1;SDS_P2;PMS_P1;PMS_P2;Temp;Humidity;BMP_temperature;BMP_pressure;BME280_temperature;BME280_humidity;BME280_pressure;Samples;Min_cycle;Max_cycle;Signal;HPM_P1;HPM_P2
2022/01/21 04:01:03;;;;;;;3.00;1.50;;;3.30;75.00;;;;;;5894172;23;20543;-77
2022/01/21 04:03:30;;;;;;;3.20;1.50;;;3.20;74.80;;;;;;4993866;28;20913;-77
2022/01/21 04:05:57;;;;;;;2.50;1.20;;;3.20;75.10;;;;;;4993976;28;20496;-77
2022/01/21 04:08:23;;;;;;;3.50;1.40;;;3.40;74.70;;;;;;4993675;28;20940;-77
2022/01/21 04:10:50;;;;;;;3.00;1.10;;;3.40;74.60;;;;;;4993854;28;20883;-77
2022/01/21 04:13:19;;;;;;;3.43;1.77;;;3.30;74.40;;;;;;4993961;28;20543;-77
2022/01/21 04:15:48;;;;;;;3.30;1.33;;;3.20;74.20;;;;;;4995067;28;20948;-77
2022/01/21 04:18:16;;;;;;;2.70;1.13;;;3.20;75.00;;;;;;4993882;28;20516;-77
2022/01/21 04:20:45;;;;;;;3.50;1.30;;;3.00;74.60;;;;;;4993752;28;20473;-77
2022/01/21 04:23:12;;;;;;;3.33;1.30;;;2.90;75.20;;;;;;4993808;28;20449;-77
2022/01/21 04:25:39;;;;;;;3.40;1.43;;;2.80;75.50;;;;;;4993918;28;20457;-77
2022/01/21 04:28:06;;;;;;;2.63;1.30;;;2.80;75.60;;;;;;4993697;28;20441;-77
2022/01/21 04:30:33;;;;;;;4.20;1.53;;;2.80;75.60;;;;;;4993864;28;20460;-77
2022/01/21 04:33:00;;;;;;;2.60;1.13;;;2.80;75.90;;;;;;4995942;28;20448;-77
2022/01/21 04:35:28;;;;;;;2.63;1.17;;;2.80;75.80;;;;;;4997392;28;20461;-77
2022/01/21 04:37:57;;;;;;;3.70;1.40;;;2.80;76.00;;;;;;4997008;28;20531;-77
2022/01/21 04:40:29;;;;;;;3.07;1.63;;;2.80;76.00;;;;;;4997235;28;20453;-78
2022/01/21 04:48:24;;;;;;;2.90;1.40;;;3.00;75.60;;;;;;4997361;28;20421;-77
2022/01/21 04:50:55;;;;;;;3.67;1.53;;;3.00;75.30;;;;;;4997115;28;20469;-77
2022/01/21 04:53:22;;;;;;;4.00;1.63;;;3.00;75.00;;;;;;4997206;28;20530;-77
2022/01/21 04:55:49;;;;;;;3.00;1.60;;;2.90;75.50;;;;;;4997117;28;20449;-77
2022/01/21 04:58:16;;;;;;;3.47;1.63;;;2.70;75.80;;;;;;4996787;28;20841;-77
2022/01/21 05:00:44;;;;;;;6.03;2.23;;;2.70;76.40;;;;;;4996526;28;20898;-77
2022/01/21 05:03:12;;;;;;;3.37;1.43;;;2.70;76.30;;;;;;4997342;28;20520;-77
2022/01/21 05:05:39;;;;;;;4.60;1.80;;;2.90;75.90;;;;;;4997655;28;20445;-77
2022/01/21 05:08:11;;;;;;;3.60;1.57;;;2.90;75.60;;;;;;5001917;28;20453;-77
2022/01/21 05:10:38;;;;;;;3.50;1.93;;;2.80;75.50;;;;;;5020077;28;20452;-76
2022/01/21 05:13:05;;;;;;;3.00;1.67;;;2.90;75.90;;;;;;5018692;28;20453;-76
2022/01/21 05:15:46;;;;;;;3.00;1.53;;;3.00;75.80;;;;;;5018056;28;20452;-76
2022/01/21 05:18:13;;;;;;;3.93;1.43;;;2.90;75.60;;;;;;4997067;28;20972;-77
2022/01/21 05:20:39;;;;;;;3.03;1.37;;;2.90;75.70;;;;;;4996853;28;20446;-76
2022/01/21 05:23:07;;;;;;;2.90;1.50;;;2.80;75.70;;;;;;4996733;28;20445;-77
2022/01/21 05:25:34;;;;;;;3.97;1.40;;;2.90;75.90;;;;;;4996619;28;20461;-77
2022/01/21 05:28:01;;;;;;;4.20;1.67;;;2.90;76.10;;;;;;4996227;28;20983;-77
2022/01/21 05:30:28;;;;;;;3.23;1.40;;;3.00;75.80;;;;;;4996401;28;20457;-77
2022/01/21 05:32:54;;;;;;;3.00;1.33;;;2.90;75.80;;;;;;4996473;28;20445;-77
2022/01/21 05:35:21;;;;;;;2.60;1.37;;;3.00;75.80;;;;;;4996313;28;20460;-76
2022/01/21 05:37:48;;;;;;;2.80;1.37;;;3.00;75.30;;;;;;4996040;28;20953;-77
2022/01/21 05:40:17;;;;;;;4.00;1.77;;;3.00;75.70;;;;;;4996441;28;20789;-77
2022/01/21 05:42:44;;;;;;;4.27;2.00;;;3.20;75.50;;;;;;4995861;28;20477;-77
2022/01/21 05:47:56;;;;;;;2.83;1.30;;;3.20;74.80;;;;;;4996314;28;20433;-77
2022/01/21 05:50:23;;;;;;;3.20;1.43;;;3.20;74.80;;;;;;4995925;28;20457;-78
2022/01/21 05:52:50;;;;;;;3.40;1.93;;;3.20;74.80;;;;;;4996033;28;20449;-77
2022/01/21 05:55:18;;;;;;;4.07;2.10;;;3.20;75.00;;;;;;4995631;28;20889;-77
2022/01/21 05:57:45;;;;;;;3.20;1.70;;;3.30;74.80;;;;;;4995884;28;20605;-77
2022/01/21 06:00:12;;;;;;;2.80;1.30;;;3.30;74.30;;;;;;4995626;28;20968;-77
2022/01/21 06:02:39;;;;;;;3.73;1.50;;;3.30;74.70;;;;;;4995439;28;20531;-77
2022/01/21 06:05:07;;;;;;;5.03;1.30;;;3.40;74.50;;;;;;4995758;28;20453;-77
2022/01/21 06:07:35;;;;;;;2.90;1.50;;;3.30;74.30;;;;;;4995793;28;20445;-77
2022/01/21 06:10:02;;;;;;;4.63;1.90;;;3.30;74.30;;;;;;4995351;28;20940;-77
2022/01/21 06:12:30;;;;;;;3.90;1.70;;;3.20;74.40;;;;;;4995542;28;20473;-77
2022/01/21 06:14:56;;;;;;;3.53;1.73;;;3.10;74.70;;;;;;4995554;28;20453;-77
2022/01/21 06:17:23;;;;;;;3.60;1.50;;;2.90;74.90;;;;;;4995438;28;20547;-77
2022/01/21 06:19:50;;;;;;;2.90;1.33;;;3.00;75.30;;;;;;5000904;28;20480;-77
2022/01/21 06:22:17;;;;;;;3.27;1.70;;;3.00;75.40;;;;;;5007560;28;20465;-77
2022/01/21 06:24:44;;;;;;;3.87;1.80;;;3.10;75.40;;;;;;5018519;28;20421;-78
2022/01/21 06:27:11;;;;;;;2.93;1.60;;;3.00;75.10;;;;;;5013052;28;20449;-77
2022/01/21 06:29:39;;;;;;;5.00;2.10;;;3.00;75.20;;;;;;4996409;28;20449;-77
2022/01/21 06:32:06;;;;;;;4.37;1.80;;;2.80;75.40;;;;;;4995378;28;21128;-78
2022/01/21 06:34:33;;;;;;;3.60;1.90;;;2.90;75.80;;;;;;4995391;28;20449;-78
2022/01/21 06:36:59;;;;;;;3.27;1.97;;;3.00;75.50;;;;;;4995167;28;20461;-78
2022/01/21 06:39:26;;;;;;;3.27;1.40;;;3.00;75.10;;;;;;4995311;28;20453;-78
2022/01/21 06:41:54;;;;;;;3.80;1.90;;;3.00;75.50;;;;;;4994953;28;20469;-77
2022/01/21 06:44:21;;;;;;;4.37;1.93;;;3.00;75.70;;;;;;4995206;28;20449;-77
2022/01/21 06:46:49;;;;;;;4.73;2.20;;;2.90;75.70;;;;;;4995130;28;20452;-78
2022/01/21 06:49:15;;;;;;;2.97;1.50;;;2.80;76.30;;;;;;4995015;28;20453;-77
2022/01/21 06:51:42;;;;;;;4.40;1.97;;;2.90;75.90;;;;;;4995032;28;20473;-78
2022/01/21 06:54:09;;;;;;;2.70;1.50;;;3.10;75.60;;;;;;4995120;28;20457;-77
2022/01/21 06:56:36;;;;;;;4.10;1.57;;;3.30;75.20;;;;;;4994681;28;20449;-78
2022/01/21 06:59:03;;;;;;;3.80;1.90;;;3.40;74.70;;;;;;4994623;28;20489;-77
2022/01/21 07:01:29;;;;;;;4.30;2.10;;;3.50;74.30;;;;;;4994353;28;20539;-77
2022/01/21 07:03:58;;;;;;;3.80;1.97;;;3.50;73.80;;;;;;4994820;28;20449;-78
2022/01/21 07:06:24;;;;;;;4.30;2.20;;;3.40;74.30;;;;;;4994442;28;20937;-78
2022/01/21 07:08:51;;;;;;;4.13;1.50;;;3.40;74.50;;;;;;4994746;28;20469;-78
2022/01/21 07:11:18;;;;;;;4.57;2.07;;;3.40;74.40;;;;;;4994603;28;20474;-77
2022/01/21 07:13:44;;;;;;;4.63;2.00;;;3.50;74.30;;;;;;4994216;28;20861;-78
2022/01/21 07:16:11;;;;;;;3.53;1.83;;;3.50;74.30;;;;;;4994363;28;20945;-77
2022/01/21 07:18:38;;;;;;;3.00;1.60;;;3.40;74.20;;;;;;4994639;28;20488;-77
2022/01/21 07:21:06;;;;;;;4.37;1.90;;;3.30;74.50;;;;;;4994275;28;20473;-77
2022/01/21 07:23:33;;;;;;;3.57;1.90;;;3.40;74.40;;;;;;4994252;28;20476;-77
2022/01/21 07:26:00;;;;;;;2.90;1.47;;;3.40;74.30;;;;;;4994599;28;20449;-77
2022/01/21 07:28:27;;;;;;;3.20;1.90;;;3.40;74.10;;;;;;4994355;28;20448;-77
2022/01/21 07:30:54;;;;;;;2.67;1.40;;;3.30;74.40;;;;;;4994214;28;20527;-77
2022/01/21 07:33:21;;;;;;;2.90;1.57;;;3.30;74.30;;;;;;4994197;28;20552;-77
2022/01/21 07:35:47;;;;;;;2.90;1.50;;;3.30;74.30;;;;;;4994212;28;20453;-77
2022/01/21 07:38:16;;;;;;;2.93;1.70;;;3.20;74.40;;;;;;4993748;28;21000;-77
2022/01/21 07:40:42;;;;;;;3.40;1.80;;;3.20;74.50;;;;;;4994057;28;20504;-77
2022/01/21 07:43:10;;;;;;;4.17;1.60;;;3.10;74.80;;;;;;4994080;28;20511;-77
2022/01/21 07:45:37;;;;;;;2.80;1.53;;;3.20;75.10;;;;;;4994075;28;20440;-77
2022/01/21 07:48:05;;;;;;;3.30;1.80;;;3.20;75.00;;;;;;4994112;28;20441;-77
2022/01/21 07:50:34;;;;;;;4.20;2.10;;;3.20;75.30;;;;;;4993695;28;20833;-77
2022/01/21 07:53:01;;;;;;;3.07;1.87;;;3.40;74.90;;;;;;4994144;28;20483;-77
2022/01/21 07:55:29;;;;;;;3.30;1.70;;;3.50;74.70;;;;;;4994018;28;20867;-77
2022/01/21 07:57:55;;;;;;;3.37;2.03;;;3.60;73.90;;;;;;4993589;28;20473;-77
2022/01/21 08:00:22;;;;;;;3.20;1.83;;;3.70;73.60;;;;;;4994454;28;20457;-79
2022/01/21 08:02:49;;;;;;;4.07;3.00;;;3.70;73.50;;;;;;4993681;28;20473;-77
2022/01/21 08:05:15;;;;;;;3.43;1.87;;;3.50;73.30;;;;;;4993845;28;20453;-76
2022/01/21 08:07:42;;;;;;;2.67;1.50;;;3.40;73.70;;;;;;4995786;28;20445;-77
2022/01/21 08:10:10;;;;;;;3.50;2.10;;;3.50;74.00;;;;;;4998007;28;20461;-77
2022/01/21 08:12:38;;;;;;;3.37;1.70;;;3.50;73.40;;;;;;4997867;28;20568;-77
2022/01/21 08:15:05;;;;;;;3.37;1.83;;;3.40;73.80;;;;;;4997620;28;20854;-77
2022/01/21 08:17:32;;;;;;;4.20;1.83;;;3.60;73.50;;;;;;4997814;28;20536;-77
2022/01/21 08:19:59;;;;;;;2.90;1.53;;;3.70;73.40;;;;;;4997670;28;20480;-77
2022/01/21 08:22:27;;;;;;;3.07;1.73;;;3.70;72.50;;;;;;4997679;28;20477;-77
2022/01/21 08:24:53;;;;;;;3.40;1.63;;;3.80;73.20;;;;;;4997594;28;20867;-77
2022/01/21 08:27:20;;;;;;;5.20;1.87;;;3.80;73.20;;;;;;4998724;28;20445;-78
2022/01/21 08:29:48;;;;;;;2.90;1.50;;;4.30;74.00;;;;;;4997577;28;20449;-78
2022/01/21 08:32:15;;;;;;;3.50;1.60;;;5.00;70.60;;;;;;4997418;28;20465;-77
2022/01/21 08:34:42;;;;;;;3.87;1.73;;;5.10;68.60;;;;;;4998000;28;20878;-77
2022/01/21 08:37:08;;;;;;;2.80;1.70;;;5.00;68.80;;;;;;4997077;28;20952;-77
2022/01/21 08:39:35;;;;;;;3.30;1.40;;;5.00;69.10;;;;;;4997375;28;20543;-78
2022/01/21 08:42:05;;;;;;;3.53;1.33;;;5.30;68.90;;;;;;4997855;28;20469;-78
2022/01/21 08:44:32;;;;;;;2.60;1.20;;;5.30;68.40;;;;;;4997301;28;20464;-78
2022/01/21 08:47:00;;;;;;;4.00;1.90;;;5.40;68.30;;;;;;4997234;28;20444;-77
2022/01/21 08:49:26;;;;;;;3.17;1.57;;;5.40;68.20;;;;;;4997118;28;20437;-77
2022/01/21 08:51:54;;;;;;;2.93;1.80;;;5.20;67.90;;;;;;4996903;28;20998;-78
2022/01/21 08:54:21;;;;;;;3.33;1.57;;;5.00;68.30;;;;;;4996884;28;20539;-78
2022/01/21 08:56:50;;;;;;;2.77;1.67;;;4.90;69.50;;;;;;4997102;28;20858;-78
2022/01/21 08:59:18;;;;;;;3.47;1.87;;;4.90;69.60;;;;;;4996863;28;20477;-77
2022/01/21 09:01:45;;;;;;;3.50;1.70;;;4.70;69.30;;;;;;4996667;28;20485;-77
2022/01/21 09:04:13;;;;;;;3.30;1.60;;;4.70;69.80;;;;;;4996894;28;20452;-77
2022/01/21 09:06:40;;;;;;;4.23;1.87;;;4.70;69.70;;;;;;4996944;28;20460;-77
2022/01/21 09:09:06;;;;;;;3.97;2.00;;;4.70;69.80;;;;;;4996806;28;20495;-77
2022/01/21 09:11:33;;;;;;;3.07;1.60;;;4.60;69.90;;;;;;4996438;28;20458;-77
2022/01/21 09:14:01;;;;;;;4.10;1.53;;;4.60;70.40;;;;;;4996682;28;20448;-78
2022/01/21 09:16:28;;;;;;;3.40;1.90;;;4.60;70.20;;;;;;4996702;28;20453;-77
2022/01/21 09:18:57;;;;;;;3.37;1.77;;;4.70;70.10;;;;;;4995274;28;20488;-77
2022/01/21 09:21:28;;;;;;;3.20;1.90;;;4.70;70.10;;;;;;4996582;28;20477;-77
2022/01/21 09:23:56;;;;;;;3.03;1.80;;;4.70;70.00;;;;;;4996270;28;20909;-77
2022/01/21 09:26:24;;;;;;;3.73;1.83;;;4.60;70.40;;;;;;4996526;28;20449;-77
2022/01/21 09:28:52;;;;;;;2.83;1.60;;;4.50;70.30;;;;;;4996440;28;20441;-77
2022/01/21 09:31:19;;;;;;;4.53;2.10;;;4.40;70.70;;;;;;4996443;28;20561;-78
2022/01/21 09:33:46;;;;;;;3.30;1.70;;;4.30;70.50;;;;;;4996547;28;20449;-78
2022/01/21 09:36:13;;;;;;;3.10;1.97;;;4.30;71.00;;;;;;4996410;28;20461;-77
2022/01/21 09:38:41;;;;;;;4.20;2.40;;;4.40;71.10;;;;;;4996352;28;20480;-77
2022/01/21 09:41:11;;;;;;;3.83;1.57;;;4.40;70.70;;;;;;4996664;28;20652;-77
2022/01/21 09:43:39;;;;;;;4.67;2.20;;;4.30;70.70;;;;;;4996327;28;20910;-77
2022/01/21 09:46:08;;;;;;;2.90;1.60;;;4.40;70.90;;;;;;4996284;28;20490;-77
2022/01/21 09:48:48;;;;;;;3.80;1.90;;;4.40;71.10;;;;;;4996277;28;20559;-78
2022/01/21 09:51:16;;;;;;;4.60;1.97;;;4.40;70.30;;;;;;4996059;28;20469;-78
2022/01/21 09:53:44;;;;;;;4.50;2.03;;;4.40;70.50;;;;;;4997278;28;20526;-78
2022/01/21 09:56:14;;;;;;;2.60;1.40;;;4.50;71.00;;;;;;4999517;28;20508;-77
2022/01/21 09:58:43;;;;;;;4.60;1.40;;;4.50;70.50;;;;;;4998743;28;20488;-78
2022/01/21 10:01:10;;;;;;;3.00;1.60;;;4.50;69.90;;;;;;4998265;28;20930;-77
2022/01/21 10:03:41;;;;;;;2.80;1.50;;;4.60;70.70;;;;;;4996786;28;20445;-78
2022/01/21 10:06:08;;;;;;;2.93;1.40;;;4.70;70.00;;;;;;4997092;28;20853;-78
2022/01/21 10:08:38;;;;;;;2.67;1.43;;;4.70;70.00;;;;;;4996366;28;20492;-78
2022/01/21 10:11:06;;;;;;;2.80;1.70;;;4.90;69.80;;;;;;4996407;28;20507;-78
2022/01/21 10:13:35;;;;;;;4.47;1.47;;;4.90;69.00;;;;;;4995693;28;20438;-78
2022/01/21 10:16:04;;;;;;;4.30;1.57;;;5.00;69.10;;;;;;4998654;28;20453;-78
2022/01/21 10:18:31;;;;;;;3.20;1.87;;;5.20;68.60;;;;;;4996267;28;20528;-77
2022/01/21 10:20:59;;;;;;;3.23;1.97;;;5.30;68.10;;;;;;4995504;28;20473;-78
2022/01/21 10:23:27;;;;;;;2.50;1.40;;;5.20;67.10;;;;;;4995550;28;20450;-77
2022/01/21 10:26:00;;;;;;;2.70;1.20;;;5.10;67.20;;;;;;4995613;28;20888;-77
2022/01/21 10:28:29;;;;;;;3.57;1.60;;;5.10;67.70;;;;;;4995521;28;20488;-77
2022/01/21 10:31:11;;;;;;;3.13;1.87;;;5.10;67.70;;;;;;4994970;28;20859;-77
2022/01/21 10:33:43;;;;;;;4.27;2.13;;;5.20;68.10;;;;;;4995382;28;20421;-77
2022/01/21 10:36:15;;;;;;;3.13;1.63;;;5.20;67.70;;;;;;4995411;28;20579;-77
2022/01/21 10:38:45;;;;;;;2.83;1.70;;;5.10;67.80;;;;;;4995417;28;20465;-78
2022/01/21 10:41:14;;;;;;;3.30;1.87;;;5.20;68.40;;;;;;4995574;28;20473;-77
2022/01/21 10:43:42;;;;;;;4.33;1.83;;;5.20;68.80;;;;;;4995093;28;20456;-78
2022/01/21 10:46:14;;;;;;;3.20;1.63;;;5.40;68.30;;;;;;4995266;28;20512;-78
2022/01/21 10:48:59;;;;;;;3.57;1.53;;;5.40;67.30;;;;;;4995160;28;20430;-78
2022/01/21 10:51:28;;;;;;;3.57;1.70;;;5.30;67.30;;;;;;4995062;28;20469;-77
2022/01/21 10:53:55;;;;;;;2.70;1.50;;;5.10;67.30;;;;;;4995235;28;20541;-78
2022/01/21 10:56:23;;;;;;;2.60;1.20;;;5.10;67.40;;;;;;4994581;28;20804;-77
2022/01/21 10:58:53;;;;;;;3.70;1.53;;;5.20;67.50;;;;;;4994427;28;20488;-78
2022/01/21 11:01:23;;;;;;;3.23;1.50;;;5.30;67.20;;;;;;4994291;28;20996;-77
2022/01/21 11:04:03;;;;;;;2.67;1.30;;;5.20;68.00;;;;;;4994781;28;20461;-78
2022/01/21 11:06:37;;;;;;;3.87;1.50;;;5.20;68.50;;;;;;4994804;28;20465;-78
2022/01/21 11:09:15;;;;;;;3.13;1.47;;;5.30;68.60;;;;;;4994667;28;20491;-77
2022/01/21 11:11:42;;;;;;;3.60;1.40;;;5.20;67.70;;;;;;4994616;28;20475;-77
2022/01/21 11:14:15;;;;;;;3.27;1.63;;;5.20;67.80;;;;;;4994523;28;20452;-77
2022/01/21 11:16:45;;;;;;;3.10;1.20;;;5.20;68.40;;;;;;4994422;28;20477;-78
2022/01/21 11:19:15;;;;;;;3.67;1.57;;;5.30;67.90;;;;;;4994371;28;20485;-77
2022/01/21 11:21:48;;;;;;;3.10;1.80;;;5.40;68.00;;;;;;4994375;28;20512;-77
2022/01/21 11:24:17;;;;;;;5.30;2.00;;;5.50;66.40;;;;;;4994466;28;20496;-77
2022/01/21 11:26:44;;;;;;;3.90;1.43;;;5.60;66.20;;;;;;4994288;28;20445;-76
2022/01/21 11:29:13;;;;;;;3.27;1.60;;;5.70;65.70;;;;;;4994171;28;20437;-77
2022/01/21 11:31:40;;;;;;;3.93;1.43;;;5.70;65.60;;;;;;4994266;28;20476;-77
2022/01/21 11:34:07;;;;;;;2.90;1.60;;;5.70;65.90;;;;;;4994130;28;20453;-77
2022/01/21 11:36:34;;;;;;;4.50;1.50;;;5.50;65.60;;;;;;4994299;28;20483;-77
2022/01/21 11:39:02;;;;;;;3.00;1.37;;;5.60;66.60;;;;;;4994049;28;20473;-77
2022/01/21 11:41:31;;;;;;;2.77;1.70;;;5.30;65.50;;;;;;4994103;28;20480;-77
2022/01/21 11:44:02;;;;;;;2.67;1.40;;;5.30;66.70;;;;;;4994002;28;20448;-76
2022/01/21 11:46:48;;;;;;;3.27;1.60;;;5.10;65.70;;;;;;4995245;28;20442;-78
2022/01/21 11:49:20;;;;;;;2.87;1.50;;;5.20;66.20;;;;;;4994459;28;20453;-78
2022/01/21 11:51:48;;;;;;;2.80;1.23;;;5.30;66.10;;;;;;4994072;28;20449;-78
2022/01/21 11:54:16;;;;;;;3.03;1.53;;;5.10;66.60;;;;;;4994456;28;20540;-78
2022/01/21 11:56:46;;;;;;;3.37;1.10;;;4.90;65.60;;;;;;4994129;28;20507;-78
2022/01/21 11:59:22;;;;;;;2.80;1.27;;;4.90;66.70;;;;;;4994108;28;20489;-76
2022/01/21 12:01:52;;;;;;;2.53;1.40;;;4.90;66.60;;;;;;4994110;28;20480;-77
2022/01/21 12:04:41;;;;;;;2.83;1.20;;;4.80;66.90;;;;;;4995117;28;20944;-78
2022/01/21 12:07:51;;;;;;;3.70;1.83;;;4.80;67.00;;;;;;4995305;28;20453;-76
2022/01/21 12:10:30;;;;;;;2.43;1.10;;;4.90;67.00;;;;;;4995428;28;20433;-77
2022/01/21 12:13:14;;;;;;;2.80;1.47;;;4.90;66.20;;;;;;4996091;28;20414;-76
2022/01/21 12:19:07;;;;;;;3.53;1.43;;;4.70;66.90;;;;;;4980526;28;20943;-76
2022/01/21 12:21:36;;;;;;;2.57;1.20;;;4.80;67.70;;;;;;4996758;28;20475;-77
2022/01/21 12:24:03;;;;;;;2.70;1.10;;;4.80;66.60;;;;;;4996328;28;20804;-77
2022/01/21 12:26:30;;;;;;;3.53;1.47;;;4.80;67.00;;;;;;4995706;28;20452;-77
2022/01/21 12:29:27;;;;;;;2.70;1.33;;;5.00;67.00;;;;;;4997523;28;20441;-77
2022/01/21 12:32:13;;;;;;;2.50;1.37;;;4.90;66.30;;;;;;4995423;28;20468;-76
2022/01/21 12:35:15;;;;;;;5.17;1.77;;;4.90;66.70;;;;;;4995022;28;20437;-75
2022/01/21 12:41:00;;;;;;;3.23;1.20;;;4.90;67.40;;;;;;4995173;28;20500;-76
2022/01/21 12:43:41;;;;;;;2.30;1.00;;;5.10;67.20;;;;;;4995131;28;20465;-77
2022/01/21 12:46:12;;;;;;;3.23;1.30;;;5.20;66.40;;;;;;4993846;28;20452;-77
2022/01/21 12:48:39;;;;;;;2.80;1.40;;;5.20;66.60;;;;;;4993803;28;20955;-77
2022/01/21 12:51:15;;;;;;;3.10;1.33;;;5.20;66.40;;;;;;4994736;28;20520;-77
2022/01/21 12:56:37;;;;;;;3.67;1.30;;;5.20;66.70;;;;;;4997117;28;20460;-78
2022/01/21 12:59:05;;;;;;;3.37;1.10;;;5.30;66.60;;;;;;4997906;28;20456;-78
2022/01/21 13:01:38;;;;;;;2.90;1.50;;;5.20;66.90;;;;;;4997274;28;20524;-77
2022/01/21 13:04:11;;;;;;;3.10;1.10;;;5.30;66.80;;;;;;4997716;28;20434;-77
2022/01/21 13:06:48;;;;;;;2.50;1.00;;;5.40;66.90;;;;;;4998538;28;20444;-77
2022/01/21 13:09:19;;;;;;;2.83;1.13;;;5.40;66.60;;;;;;4999429;28;20448;-78
2022/01/21 13:11:55;;;;;;;4.33;1.10;;;5.40;66.50;;;;;;4998999;28;20504;-77
2022/01/21 13:14:33;;;;;;;3.70;1.87;;;5.40;67.10;;;;;;4999720;28;20437;-78
2022/01/21 13:17:02;;;;;;;2.80;1.30;;;5.30;66.40;;;;;;5000563;28;20437;-77
2022/01/21 13:19:29;;;;;;;3.47;1.30;;;5.20;67.50;;;;;;4998742;28;20492;-77
2022/01/21 13:21:57;;;;;;;2.80;1.33;;;5.30;67.70;;;;;;4998929;28;20473;-77
2022/01/21 13:24:29;;;;;;;3.70;1.43;;;5.40;67.60;;;;;;4998708;28;20462;-77
2022/01/21 13:26:56;;;;;;;3.20;1.30;;;5.40;66.90;;;;;;4998417;28;20442;-77
2022/01/21 13:29:31;;;;;;;2.67;1.13;;;5.20;66.60;;;;;;4998966;28;20452;-78
2022/01/21 13:32:00;;;;;;;3.10;1.00;;;5.00;67.60;;;;;;4998709;28;20479;-77
2022/01/21 13:34:29;;;;;;;2.80;1.20;;;5.00;67.80;;;;;;5001250;28;20449;-77
2022/01/21 13:36:59;;;;;;;3.97;1.93;;;4.90;68.20;;;;;;5005100;28;20453;-77
2022/01/21 13:39:28;;;;;;;3.07;1.00;;;4.70;69.70;;;;;;5012892;28;20488;-77
2022/01/21 13:41:59;;;;;;;2.40;1.10;;;4.80;70.40;;;;;;5002257;28;20473;-77
2022/01/21 13:44:35;;;;;;;2.20;0.90;;;4.90;70.60;;;;;;4998634;28;20484;-77
2022/01/21 13:47:04;;;;;;;3.00;1.60;;;5.10;70.10;;;;;;5003604;28;20436;-77
2022/01/21 13:49:30;;;;;;;3.80;1.67;;;5.10;69.70;;;;;;5012292;28;20450;-77
2022/01/21 13:52:01;;;;;;;4.17;1.20;;;5.20;69.30;;;;;;5012112;28;20473;-77
2022/01/21 13:54:33;;;;;;;2.90;1.20;;;5.20;69.10;;;;;;5006613;28;20442;-76
2022/01/21 13:57:00;;;;;;;2.70;1.30;;;5.30;69.00;;;;;;5012033;28;20449;-76
2022/01/21 13:59:29;;;;;;;3.80;1.17;;;5.30;69.30;;;;;;5010510;28;20449;-77
2022/01/21 14:02:11;;;;;;;2.60;1.17;;;5.40;68.70;;;;;;5006700;28;20849;-76
2022/01/21 14:04:38;;;;;;;3.00;1.17;;;5.40;68.10;;;;;;5006659;28;20457;-76
2022/01/21 14:07:21;;;;;;;2.60;1.00;;;5.50;68.30;;;;;;4997956;28;20968;-76
2022/01/21 14:09:48;;;;;;;2.97;1.03;;;5.50;68.50;;;;;;4997756;28;20433;-76
2022/01/21 14:12:15;;;;;;;2.70;1.10;;;5.60;68.60;;;;;;4997422;28;20996;-76
2022/01/21 14:14:42;;;;;;;3.03;1.20;;;5.30;68.50;;;;;;4998226;28;20480;-77
2022/01/21 14:17:10;;;;;;;3.03;1.50;;;5.30;69.30;;;;;;4997443;28;20448;-78
2022/01/21 14:19:43;;;;;;;2.30;1.07;;;5.30;69.20;;;;;;4997337;28;20457;-77
2022/01/21 14:22:12;;;;;;;2.90;1.20;;;5.30;69.40;;;;;;5006838;28;20472;-77
2022/01/21 14:24:44;;;;;;;2.60;1.10;;;5.30;69.80;;;;;;5016256;28;20437;-78
2022/01/21 14:27:23;;;;;;;2.63;1.50;;;5.40;69.30;;;;;;5013239;28;20523;-77
2022/01/21 14:29:55;;;;;;;2.90;1.20;;;5.40;69.10;;;;;;5005148;28;20605;-77
2022/01/21 14:32:28;;;;;;;3.30;1.40;;;5.30;68.80;;;;;;4996746;28;20480;-77
2022/01/21 14:35:10;;;;;;;2.60;1.20;;;5.50;69.20;;;;;;4997384;28;20522;-77
2022/01/21 14:37:41;;;;;;;3.57;1.10;;;5.50;68.80;;;;;;4996518;28;20491;-76
2022/01/21 14:40:09;;;;;;;3.03;1.60;;;5.50;68.60;;;;;;4996543;28;20477;-77
2022/01/21 14:42:36;;;;;;;4.37;2.07;;;5.40;69.10;;;;;;4996109;28;20476;-77
2022/01/21 14:45:15;;;;;;;4.27;1.53;;;5.50;68.80;;;;;;4996039;28;20573;-77
2022/01/21 14:47:43;;;;;;;2.90;1.50;;;5.40;68.70;;;;;;4996860;28;20434;-78
2022/01/21 14:50:12;;;;;;;3.10;1.30;;;5.40;69.10;;;;;;4996067;28;20457;-77
2022/01/21 14:52:43;;;;;;;2.70;1.03;;;5.30;69.00;;;;;;4996322;28;20880;-78
2022/01/21 14:55:19;;;;;;;4.13;1.30;;;5.30;68.90;;;;;;4996008;28;20441;-77
2022/01/21 14:57:48;;;;;;;2.70;1.00;;;5.20;69.50;;;;;;4995814;28;20948;-78
2022/01/21 15:00:32;;;;;;;2.93;1.20;;;5.20;69.50;;;;;;4996717;28;20857;-77
2022/01/21 15:03:04;;;;;;;3.83;1.47;;;5.20;69.80;;;;;;4996013;28;20461;-77
2022/01/21 15:05:31;;;;;;;2.73;1.07;;;5.10;69.70;;;;;;4995057;28;20500;-77
2022/01/21 15:07:59;;;;;;;2.93;1.10;;;5.10;69.90;;;;;;4994841;28;20972;-77
2022/01/21 15:10:35;;;;;;;3.47;1.30;;;5.20;69.70;;;;;;4994734;28;20495;-78
2022/01/21 15:16:14;;;;;;;2.57;1.17;;;5.00;69.90;;;;;;4970393;28;20441;-77
2022/01/21 15:18:41;;;;;;;2.40;1.00;;;5.20;70.10;;;;;;4994584;28;20867;-78
2022/01/21 15:21:16;;;;;;;2.80;1.30;;;5.00;69.70;;;;;;4995701;28;20492;-77
2022/01/21 15:23:46;;;;;;;3.17;1.10;;;5.00;70.40;;;;;;4996177;28;20448;-77
2022/01/21 15:26:14;;;;;;;3.00;1.00;;;5.00;70.20;;;;;;5002659;28;20464;-77
2022/01/21 15:28:41;;;;;;;2.60;1.00;;;5.00;70.30;;;;;;4997286;28;20472;-78
2022/01/21 15:31:07;;;;;;;2.70;0.90;;;5.10;70.60;;;;;;4995524;28;20979;-77
2022/01/21 15:33:34;;;;;;;2.83;1.13;;;5.10;70.20;;;;;;4994434;28;20845;-77
2022/01/21 15:36:03;;;;;;;2.43;0.90;;;5.20;69.90;;;;;;4994086;28;20793;-76
2022/01/21 15:38:29;;;;;;;4.37;1.07;;;5.30;69.80;;;;;;4994308;28;20449;-77
2022/01/21 15:40:58;;;;;;;2.83;1.20;;;5.10;70.00;;;;;;4993681;28;20515;-77
2022/01/21 15:43:24;;;;;;;3.47;1.10;;;5.10;70.10;;;;;;4994068;28;20453;-77
2022/01/21 15:45:51;;;;;;;2.50;1.10;;;5.00;70.00;;;;;;4993994;28;20445;-77
2022/01/21 15:48:17;;;;;;;2.63;1.00;;;5.10;70.20;;;;;;4994188;28;20453;-77
2022/01/21 15:50:45;;;;;;;3.30;1.10;;;5.20;70.20;;;;;;4994379;28;20469;-78
2022/01/21 15:53:13;;;;;;;2.70;1.10;;;5.10;69.80;;;;;;4995008;28;20479;-77
2022/01/21 15:55:40;;;;;;;2.43;1.00;;;5.00;70.00;;;;;;4994478;28;20460;-77
2022/01/21 15:58:08;;;;;;;3.43;1.10;;;5.10;70.10;;;;;;4994320;28;20456;-77
2022/01/21 16:00:35;;;;;;;2.60;1.03;;;5.00;70.10;;;;;;4994157;28;20481;-78
2022/01/21 16:03:05;;;;;;;2.47;0.90;;;5.10;70.10;;;;;;4997908;28;20460;-77
2022/01/21 16:05:31;;;;;;;2.60;1.10;;;5.00;69.60;;;;;;4998808;28;20520;-77
2022/01/21 16:08:00;;;;;;;2.50;1.30;;;4.90;69.70;;;;;;5000427;28;20449;-78
2022/01/21 16:10:27;;;;;;;3.70;1.30;;;4.90;70.20;;;;;;4997440;28;20460;-79
2022/01/21 16:12:54;;;;;;;2.97;1.30;;;4.90;70.40;;;;;;4997379;28;20960;-77
2022/01/21 16:15:22;;;;;;;3.73;1.40;;;4.90;70.30;;;;;;4999382;28;20453;-78
2022/01/21 16:17:49;;;;;;;2.90;1.33;;;4.90;70.50;;;;;;4998451;28;20452;-78
2022/01/21 16:20:16;;;;;;;2.57;1.20;;;5.00;70.50;;;;;;4997564;28;20497;-78
2022/01/21 16:22:43;;;;;;;2.40;1.00;;;4.90;70.30;;;;;;4996530;28;20476;-78
2022/01/21 16:25:10;;;;;;;2.60;1.23;;;4.90;70.40;;;;;;4996712;28;20457;-78
2022/01/21 16:27:37;;;;;;;2.70;1.40;;;4.80;70.60;;;;;;4997160;28;20456;-77
2022/01/21 16:30:06;;;;;;;4.00;1.90;;;4.80;70.80;;;;;;5000720;28;20456;-78
2022/01/21 16:32:35;;;;;;;2.70;1.30;;;4.70;71.10;;;;;;5000668;28;20504;-78
2022/01/21 16:35:02;;;;;;;2.30;1.00;;;4.60;71.40;;;;;;5001068;28;20651;-77
2022/01/21 16:37:28;;;;;;;4.47;1.30;;;4.50;71.60;;;;;;4999951;28;20468;-77
2022/01/21 16:39:58;;;;;;;2.37;0.90;;;4.60;71.80;;;;;;5001061;28;20452;-78
2022/01/21 16:42:24;;;;;;;2.43;1.00;;;4.70;71.60;;;;;;5000152;28;20489;-78
2022/01/21 16:44:52;;;;;;;3.13;1.23;;;4.70;71.30;;;;;;5000787;28;20441;-78
2022/01/21 16:47:19;;;;;;;5.33;1.60;;;4.70;71.30;;;;;;5000736;28;20460;-78
2022/01/21 16:49:47;;;;;;;2.30;1.00;;;4.60;71.50;;;;;;5000376;28;20456;-77
2022/01/21 16:52:14;;;;;;;2.60;0.87;;;4.60;71.90;;;;;;5000259;28;20481;-77
2022/01/21 16:54:46;;;;;;;3.13;1.00;;;4.80;72.10;;;;;;4999472;28;20830;-78
2022/01/21 16:57:15;;;;;;;3.40;1.10;;;4.80;71.20;;;;;;5000903;28;20528;-77
2022/01/21 16:59:43;;;;;;;4.67;1.70;;;4.60;71.70;;;;;;4999728;28;20491;-77
2022/01/21 17:02:10;;;;;;;2.90;1.30;;;4.50;71.70;;;;;;4999468;28;20577;-77
2022/01/21 17:04:38;;;;;;;3.20;1.30;;;4.50;71.80;;;;;;4998925;28;20457;-77
2022/01/21 17:07:07;;;;;;;3.07;1.47;;;4.40;71.90;;;;;;4999194;28;20457;-77
2022/01/21 17:09:34;;;;;;;3.97;1.10;;;4.30;72.40;;;;;;5000213;28;20453;-77
2022/01/21 17:12:02;;;;;;;2.60;1.00;;;4.30;72.70;;;;;;4999514;28;20469;-78
2022/01/21 17:14:28;;;;;;;2.90;1.30;;;4.30;72.70;;;;;;4999887;28;20459;-77
2022/01/21 17:16:56;;;;;;;3.37;1.50;;;4.30;72.80;;;;;;5000604;28;20457;-78
2022/01/21 17:19:24;;;;;;;3.07;1.17;;;4.30;72.70;;;;;;5001558;28;20549;-78
2022/01/21 17:21:51;;;;;;;2.63;1.00;;;4.30;72.70;;;;;;5001229;28;20496;-77
2022/01/21 17:24:19;;;;;;;2.77;1.43;;;4.20;72.50;;;;;;5000809;28;20464;-78
2022/01/21 17:26:47;;;;;;;3.03;1.40;;;4.20;73.00;;;;;;4999673;28;20456;-78
2022/01/21 17:29:15;;;;;;;2.80;1.20;;;4.10;73.00;;;;;;4997999;28;20455;-78